Time;durP1;ratioP1;P1;durP2;ratioP2;P2;SDS_P1;SDS_P2;PMS_P1;PMS_P2;Temp;Humidity;BMP_temperature;BMP_pressure;BME280_temperature;BME280_humidity;BME280_pressure;Samples;Min_cycle;Max_cycle;Signal;HPM_P1;HPM_P2
2022/12/25 00:01:25;;;;;;;0.60;0.60;;;;;8.00;96073.00;;;;5073174;28;20211;-58
2022/12/25 00:03:53;;;;;;;0.87;0.87;;;;;7.90;96079.00;;;;5073801;28;20569;-59
2022/12/25 00:06:21;;;;;;;0.63;0.63;;;;;7.90;96087.00;;;;5073185;28;20658;-59
2022/12/25 00:08:48;;;;;;;0.70;0.70;;;;;7.90;96073.00;;;;5073135;28;20187;-59
2022/12/25 00:11:18;;;;;;;1.17;1.17;;;;;8.00;96065.00;;;;5073017;28;20241;-59
2022/12/25 00:13:46;;;;;;;0.70;0.70;;;;;7.90;96062.00;;;;5073685;28;20274;-59
2022/12/25 00:16:17;;;;;;;0.90;0.90;;;;;8.00;96064.00;;;;5073038;28;20735;-59
2022/12/25 00:18:45;;;;;;;0.77;0.77;;;;;7.90;96066.00;;;;5073573;28;20211;-59
2022/12/25 00:21:13;;;;;;;0.50;0.50;;;;;7.90;96068.00;;;;5072958;28;20210;-59
2022/12/25 00:23:41;;;;;;;0.60;0.60;;;;;7.90;96072.00;;;;5073273;28;20215;-59
2022/12/25 00:26:11;;;;;;;0.70;0.70;;;;;7.80;96074.00;;;;5054985;28;20226;-59
2022/12/25 00:28:40;;;;;;;0.50;0.50;;;;;7.90;96071.00;;;;5073811;28;20188;-60
2022/12/25 00:31:09;;;;;;;0.60;0.60;;;;;7.90;96068.00;;;;5072831;28;20287;-59
2022/12/25 00:33:40;;;;;;;0.67;0.67;;;;;7.90;96057.00;;;;5072914;28;20227;-60
2022/12/25 00:36:10;;;;;;;1.20;1.20;;;;;8.00;96060.00;;;;5054927;28;20679;-58
2022/12/25 00:38:38;;;;;;;0.60;0.60;;;;;8.00;96061.00;;;;5072945;28;20198;-58
2022/12/25 00:41:07;;;;;;;1.77;1.67;;;;;7.90;96061.00;;;;5072585;28;20282;-59
2022/12/25 00:43:35;;;;;;;0.50;0.50;;;;;7.90;96064.00;;;;5073014;28;20623;-58
2022/12/25 00:46:06;;;;;;;0.60;0.60;;;;;7.80;96055.00;;;;5073034;28;20202;-58
2022/12/25 00:48:34;;;;;;;0.70;0.70;;;;;7.80;96056.00;;;;5072747;28;20184;-58
2022/12/25 00:51:04;;;;;;;0.70;0.70;;;;;7.90;96043.00;;;;5072667;28;20211;-57
2022/12/25 00:53:32;;;;;;;1.20;1.20;;;;;7.90;96058.00;;;;5072914;28;20191;-58
2022/12/25 00:56:02;;;;;;;0.90;0.90;;;;;7.80;96058.00;;;;5073236;28;20229;-58
2022/12/25 00:58:32;;;;;;;1.47;1.37;;;;;7.90;96064.00;;;;5058534;28;20211;-58
2022/12/25 01:00:59;;;;;;;1.23;0.93;;;;;7.90;96060.00;;;;5076592;28;20215;-58
2022/12/25 01:03:29;;;;;;;0.50;0.50;;;;;7.90;96057.00;;;;5076427;28;20195;-59
2022/12/25 01:05:58;;;;;;;0.67;0.67;;;;;7.80;96064.00;;;;5076325;28;20662;-58
2022/12/25 01:08:25;;;;;;;0.70;0.70;;;;;7.70;96065.00;;;;5076246;28;20200;-58
2022/12/25 01:10:56;;;;;;;1.07;1.07;;;;;7.70;96057.00;;;;5076192;28;20208;-58
2022/12/25 01:13:24;;;;;;;0.60;0.60;;;;;7.60;96059.00;;;;5058266;28;20215;-59
2022/12/25 01:15:53;;;;;;;0.80;0.80;;;;;7.70;96050.00;;;;5076150;28;20200;-58
2022/12/25 01:18:21;;;;;;;0.50;0.50;;;;;7.80;96052.00;;;;5058182;28;20675;-58
2022/12/25 01:20:49;;;;;;;0.80;0.80;;;;;7.80;96059.00;;;;5076169;28;20226;-58
2022/12/25 01:23:17;;;;;;;5.40;1.83;;;;;7.80;96070.00;;;;5076205;28;20207;-59
2022/12/25 01:25:44;;;;;;;0.60;0.60;;;;;7.80;96060.00;;;;5076204;28;20241;-58
2022/12/25 01:28:12;;;;;;;0.90;0.90;;;;;7.80;96059.00;;;;5075868;28;20654;-58
2022/12/25 01:30:47;;;;;;;0.80;0.80;;;;;7.80;96054.00;;;;5076041;28;20633;-58
2022/12/25 01:33:14;;;;;;;0.53;0.53;;;;;7.80;96071.00;;;;5076143;28;20245;-58
2022/12/25 01:35:42;;;;;;;0.63;0.63;;;;;7.70;96072.00;;;;5075815;28;20673;-59
2022/12/25 01:38:11;;;;;;;0.70;0.70;;;;;7.70;96073.00;;;;5057795;28;20191;-58
2022/12/25 01:40:39;;;;;;;0.87;0.87;;;;;7.70;96073.00;;;;5083762;22;20289;-56
2022/12/25 01:43:17;;;;;;;0.80;0.80;;;;;7.80;96063.00;;;;5055700;28;20283;-57
2022/12/25 01:45:46;;;;;;;0.80;0.80;;;;;7.80;96063.00;;;;5055721;28;20192;-57
2022/12/25 01:48:19;;;;;;;0.90;0.90;;;;;7.80;96062.00;;;;5038783;28;20655;-57
2022/12/25 01:50:51;;;;;;;0.97;0.97;;;;;7.80;96069.00;;;;5055759;28;20208;-56
2022/12/25 01:53:20;;;;;;;1.10;1.10;;;;;7.80;96061.00;;;;5055544;28;20191;-56
2022/12/25 01:55:54;;;;;;;1.70;1.60;;;;;7.80;96055.00;;;;5055389;28;20196;-57
2022/12/25 01:58:22;;;;;;;0.80;0.80;;;;;7.80;96067.00;;;;5037595;28;20192;-58
2022/12/25 02:00:50;;;;;;;0.97;0.97;;;;;7.80;96061.00;;;;5055454;28;20251;-57
2022/12/25 02:03:17;;;;;;;0.70;0.70;;;;;7.80;96061.00;;;;5037508;28;20199;-56
2022/12/25 02:05:47;;;;;;;0.60;0.60;;;;;7.80;96062.00;;;;5055249;28;20196;-57
2022/12/25 02:08:17;;;;;;;0.80;0.80;;;;;7.80;96058.00;;;;5055269;28;20196;-56
2022/12/25 02:10:46;;;;;;;1.83;1.23;;;;;7.80;96058.00;;;;5055386;28;20212;-56
2022/12/25 02:13:14;;;;;;;0.70;0.70;;;;;7.70;96051.00;;;;5055099;28;20192;-57
2022/12/25 02:15:50;;;;;;;1.03;1.03;;;;;7.70;96047.00;;;;5055340;28;20219;-57
2022/12/25 02:18:28;;;;;;;1.00;1.00;;;;;7.70;96047.00;;;;5055331;28;20184;-57
2022/12/25 02:21:30;;;;;;;0.90;0.90;;;;;7.70;96042.00;;;;5054896;28;20227;-57
2022/12/25 02:24:23;;;;;;;0.60;0.60;;;;;7.70;96031.00;;;;5037055;28;20639;-57
2022/12/25 02:27:01;;;;;;;1.00;1.00;;;;;7.70;96038.00;;;;5055179;28;20238;-57
2022/12/25 02:29:39;;;;;;;0.83;0.83;;;;;7.70;96052.00;;;;5054797;28;20677;-57
2022/12/25 02:32:15;;;;;;;1.03;1.03;;;;;7.70;96046.00;;;;5055024;28;20270;-57
2022/12/25 02:34:47;;;;;;;0.53;0.53;;;;;7.60;96041.00;;;;5037647;28;20238;-57
2022/12/25 02:37:23;;;;;;;1.23;1.13;;;;;7.60;96039.00;;;;5036851;28;20564;-56
2022/12/25 02:39:56;;;;;;;0.60;0.60;;;;;7.60;96048.00;;;;5054532;28;20207;-57
2022/12/25 03:08:02;;;;;;;0.87;0.87;;;;;7.60;96025.00;;;;5054350;28;20211;-57
2022/12/25 03:13:19;;;;;;;1.93;1.83;;;;;7.60;96023.00;;;;5054046;28;20196;-57
2022/12/25 03:18:39;;;;;;;0.50;0.50;;;;;7.60;96008.00;;;;4997104;28;20216;-57
2022/12/25 03:26:57;;;;;;;1.00;1.00;;;;;7.50;96005.00;;;;5028363;28;20208;-56
2022/12/25 03:32:19;;;;;;;1.57;1.47;;;;;7.50;96009.00;;;;5053668;28;20215;-56
2022/12/25 04:36:15;;;;;;;0.93;0.93;;;;;7.60;95985.00;;;;5057015;28;20188;-56
2022/12/25 04:38:43;;;;;;;1.13;1.13;;;;;7.70;95976.00;;;;5056877;28;20199;-56
2022/12/25 04:41:13;;;;;;;0.80;0.80;;;;;7.70;95967.00;;;;5056540;28;20224;-56
2022/12/25 04:43:40;;;;;;;1.87;1.70;;;;;7.70;95979.00;;;;5056808;28;20600;-57
2022/12/25 04:46:07;;;;;;;1.13;1.03;;;;;7.70;95977.00;;;;5057028;28;20246;-56
2022/12/25 04:48:36;;;;;;;0.87;0.87;;;;;7.70;95972.00;;;;5056915;28;20196;-57
2022/12/25 04:51:12;;;;;;;0.60;0.60;;;;;7.70;95972.00;;;;5056708;28;20282;-56
2022/12/25 04:53:39;;;;;;;1.17;1.07;;;;;7.70;95972.00;;;;5056903;28;20196;-57
2022/12/25 04:56:07;;;;;;;0.70;0.70;;;;;7.70;95973.00;;;;5056601;28;20221;-57
2022/12/25 04:58:35;;;;;;;1.03;1.03;;;;;7.70;95967.00;;;;5056747;28;20204;-57
2022/12/25 05:01:04;;;;;;;0.60;0.60;;;;;7.80;95959.00;;;;5056285;28;20281;-57
2022/12/25 05:03:31;;;;;;;0.60;0.60;;;;;7.80;95962.00;;;;5056692;28;20553;-56
2022/12/25 05:05:59;;;;;;;0.77;0.77;;;;;7.80;95965.00;;;;5056392;28;20192;-56
2022/12/25 05:08:27;;;;;;;0.90;0.90;;;;;7.80;95958.00;;;;5056350;28;20224;-56
2022/12/25 05:10:55;;;;;;;1.27;1.27;;;;;7.80;95958.00;;;;5056240;28;20204;-56
2022/12/25 05:13:22;;;;;;;0.60;0.60;;;;;7.80;95962.00;;;;5056403;28;20199;-57
2022/12/25 05:15:52;;;;;;;1.10;1.10;;;;;7.80;95962.00;;;;5056483;28;20670;-56
2022/12/25 05:18:19;;;;;;;0.63;0.63;;;;;7.70;95971.00;;;;5056192;28;20192;-56
2022/12/25 05:20:52;;;;;;;1.03;1.03;;;;;7.80;95970.00;;;;5055966;28;20281;-56
2022/12/25 05:23:20;;;;;;;0.80;0.80;;;;;7.80;95976.00;;;;5056413;28;20177;-56
2022/12/25 05:25:47;;;;;;;1.33;1.23;;;;;7.70;95967.00;;;;5056337;28;20250;-56
2022/12/25 05:28:15;;;;;;;0.80;0.80;;;;;7.70;95973.00;;;;5056001;28;20198;-57
2022/12/25 05:30:42;;;;;;;0.90;0.90;;;;;7.80;95972.00;;;;5055870;28;20212;-56
2022/12/25 05:33:11;;;;;;;0.83;0.83;;;;;7.80;95967.00;;;;5055890;28;20214;-57
2022/12/25 05:35:39;;;;;;;1.07;1.07;;;;;7.80;95959.00;;;;5055786;28;20231;-57
2022/12/25 05:38:07;;;;;;;0.70;0.70;;;;;7.80;95958.00;;;;5055822;28;20247;-57
2022/12/25 05:40:38;;;;;;;0.70;0.70;;;;;7.90;95961.00;;;;5055502;28;20224;-56
2022/12/25 05:43:06;;;;;;;0.97;0.97;;;;;7.90;95956.00;;;;5055711;28;20194;-56
2022/12/25 05:45:33;;;;;;;1.37;1.20;;;;;7.90;95953.00;;;;5056199;28;20545;-57
2022/12/25 05:48:00;;;;;;;0.70;0.70;;;;;7.80;95934.00;;;;5055542;28;20238;-56
2022/12/25 05:50:29;;;;;;;0.90;0.90;;;;;7.80;95939.00;;;;5055515;28;20204;-56
2022/12/25 05:52:57;;;;;;;1.57;1.10;;;;;7.80;95939.00;;;;5037706;28;20208;-56
2022/12/25 05:55:24;;;;;;;0.70;0.70;;;;;7.80;95935.00;;;;5055513;28;20732;-56
2022/12/25 05:57:51;;;;;;;1.00;1.00;;;;;7.80;95942.00;;;;5055435;28;20192;-56
2022/12/25 06:00:20;;;;;;;0.70;0.70;;;;;7.90;95942.00;;;;5055666;28;20273;-57
2022/12/25 06:02:47;;;;;;;0.73;0.73;;;;;7.90;95935.00;;;;5037499;28;20266;-57
2022/12/25 06:05:15;;;;;;;0.90;0.90;;;;;7.90;95940.00;;;;5055604;28;20195;-57
2022/12/25 06:07:44;;;;;;;0.80;0.80;;;;;7.80;95940.00;;;;5055231;28;20192;-57
2022/12/25 06:10:11;;;;;;;0.80;0.80;;;;;7.80;95936.00;;;;5055074;28;20207;-56
2022/12/25 06:12:39;;;;;;;1.00;1.00;;;;;7.80;95937.00;;;;5055127;28;20245;-57
2022/12/25 06:15:07;;;;;;;0.87;0.87;;;;;7.80;95934.00;;;;5055683;28;20204;-56
2022/12/25 06:17:35;;;;;;;1.47;1.43;;;;;7.80;95941.00;;;;5055884;28;20254;-56
2022/12/25 06:20:03;;;;;;;1.20;1.20;;;;;7.80;95940.00;;;;5054891;28;20196;-56
2022/12/25 06:22:31;;;;;;;0.60;0.60;;;;;7.80;95928.00;;;;5055481;28;20196;-57
2022/12/25 06:25:00;;;;;;;0.80;0.80;;;;;7.80;95940.00;;;;5055216;28;20709;-56
2022/12/25 06:27:28;;;;;;;0.80;0.80;;;;;7.80;95941.00;;;;5054861;28;20663;-56
2022/12/25 06:29:55;;;;;;;1.27;1.10;;;;;7.70;95938.00;;;;5055053;28;20247;-57
2022/12/25 06:32:23;;;;;;;0.70;0.70;;;;;7.70;95930.00;;;;5054780;28;20196;-57
2022/12/25 06:34:50;;;;;;;0.70;0.70;;;;;7.70;95931.00;;;;5054706;28;20192;-56
2022/12/25 06:37:18;;;;;;;0.67;0.67;;;;;7.70;95936.00;;;;5054781;28;20347;-56
2022/12/25 06:39:46;;;;;;;0.60;0.60;;;;;7.70;95933.00;;;;5054813;28;20196;-57
2022/12/25 06:42:15;;;;;;;0.70;0.70;;;;;7.70;95934.00;;;;5054433;28;20266;-56
2022/12/25 06:44:43;;;;;;;1.00;1.00;;;;;7.70;95934.00;;;;5054567;28;20192;-56
2022/12/25 06:47:10;;;;;;;0.50;0.50;;;;;7.80;95934.00;;;;5054512;28;20238;-56
2022/12/25 06:49:38;;;;;;;0.70;0.70;;;;;7.80;95934.00;;;;5036615;28;20574;-56
2022/12/25 06:52:05;;;;;;;0.50;0.50;;;;;7.80;95944.00;;;;5054324;28;20212;-56
2022/12/25 06:54:33;;;;;;;0.87;0.87;;;;;7.70;95934.00;;;;5053418;28;20192;-56
2022/12/25 06:57:00;;;;;;;0.80;0.80;;;;;7.70;95932.00;;;;5054298;28;20195;-56
2022/12/25 06:59:29;;;;;;;0.97;0.97;;;;;7.80;95924.00;;;;5054205;28;20207;-56
2022/12/25 07:01:57;;;;;;;0.87;0.87;;;;;7.80;95934.00;;;;5036163;28;20581;-56
2022/12/25 07:04:31;;;;;;;0.67;0.67;;;;;7.80;95925.00;;;;5054166;28;20250;-56
2022/12/25 07:06:58;;;;;;;1.00;1.00;;;;;7.80;95928.00;;;;5054149;28;20262;-57
2022/12/25 07:09:26;;;;;;;0.63;0.63;;;;;7.80;95920.00;;;;5054331;28;20531;-56
2022/12/25 07:11:53;;;;;;;0.97;0.97;;;;;7.80;95921.00;;;;5053953;28;20212;-57
2022/12/25 07:14:23;;;;;;;0.60;0.60;;;;;7.90;95927.00;;;;5054248;28;20192;-57
2022/12/25 07:16:51;;;;;;;0.60;0.60;;;;;8.00;95925.00;;;;5054139;28;20594;-57
2022/12/25 07:19:19;;;;;;;0.60;0.60;;;;;8.10;95926.00;;;;5054328;28;20192;-56
2022/12/25 07:21:46;;;;;;;0.77;0.77;;;;;7.80;95921.00;;;;5053600;28;20278;-57
2022/12/25 07:24:19;;;;;;;1.50;1.40;;;;;7.90;95916.00;;;;5053772;28;20663;-56
2022/12/25 07:26:46;;;;;;;1.03;1.03;;;;;7.90;95916.00;;;;5053991;28;20215;-57
2022/12/25 07:29:14;;;;;;;0.90;0.90;;;;;7.80;95912.00;;;;5053675;28;20613;-57
2022/12/25 07:31:42;;;;;;;0.60;0.60;;;;;7.70;95916.00;;;;5053559;28;20237;-56
2022/12/25 07:34:10;;;;;;;0.80;0.80;;;;;7.70;95907.00;;;;5053815;28;20526;-57
2022/12/25 07:36:38;;;;;;;0.97;0.97;;;;;7.60;95901.00;;;;5053556;28;20193;-56
2022/12/25 07:39:05;;;;;;;0.80;0.80;;;;;7.60;95911.00;;;;5053985;28;20643;-57
2022/12/25 07:41:32;;;;;;;1.03;1.03;;;;;7.60;95903.00;;;;5075416;22;20246;-62
2022/12/25 07:44:00;;;;;;;3.37;2.70;;;;;7.50;95912.00;;;;5073653;28;20553;-62
2022/12/25 07:46:28;;;;;;;0.50;0.50;;;;;7.60;95907.00;;;;5073386;28;20191;-63
2022/12/25 07:48:55;;;;;;;0.80;0.80;;;;;7.70;95912.00;;;;5073391;28;20274;-62
2022/12/25 07:51:24;;;;;;;0.60;0.60;;;;;7.70;95913.00;;;;5055399;28;20682;-64
2022/12/25 07:53:51;;;;;;;0.60;0.60;;;;;7.60;95911.00;;;;5073445;28;20199;-62
2022/12/25 07:56:20;;;;;;;0.90;0.90;;;;;7.60;95910.00;;;;5073294;28;20198;-63
2022/12/25 07:58:49;;;;;;;8.60;1.27;;;;;7.60;95919.00;;;;5073309;28;20219;-62
2022/12/25 08:01:19;;;;;;;0.57;0.57;;;;;7.60;95924.00;;;;5055079;28;20219;-63
2022/12/25 08:03:50;;;;;;;0.70;0.70;;;;;7.60;95921.00;;;;5073789;28;20184;-62
2022/12/25 08:06:18;;;;;;;0.90;0.90;;;;;7.70;95930.00;;;;5073233;28;20226;-62
2022/12/25 08:08:47;;;;;;;0.93;0.93;;;;;7.70;95921.00;;;;5073090;28;20712;-62
2022/12/25 08:11:15;;;;;;;0.80;0.80;;;;;7.70;95916.00;;;;5073026;28;20211;-63
2022/12/25 08:13:42;;;;;;;0.90;0.90;;;;;7.70;95925.00;;;;5073112;28;20187;-62
2022/12/25 08:16:11;;;;;;;1.07;1.07;;;;;7.70;95927.00;;;;5073105;28;20199;-63
2022/12/25 08:18:39;;;;;;;0.70;0.70;;;;;7.80;95916.00;;;;5073088;28;20191;-62
2022/12/25 08:21:08;;;;;;;0.80;0.80;;;;;7.80;95922.00;;;;5072903;28;20211;-62
2022/12/25 08:23:38;;;;;;;0.97;0.97;;;;;7.90;95921.00;;;;5073029;28;20202;-64
2022/12/25 08:26:10;;;;;;;0.60;0.60;;;;;8.00;95919.00;;;;5072917;28;20200;-62
2022/12/25 08:28:38;;;;;;;0.90;0.90;;;;;8.10;95925.00;;;;5073301;28;20583;-62
2022/12/25 08:31:10;;;;;;;0.77;0.77;;;;;8.10;95935.00;;;;5072932;28;20284;-62
2022/12/25 08:33:38;;;;;;;0.53;0.53;;;;;8.20;95934.00;;;;5072914;28;20249;-62
2022/12/25 08:36:07;;;;;;;1.53;1.23;;;;;8.20;95941.00;;;;5073110;28;20219;-63
2022/12/25 08:38:36;;;;;;;1.07;1.07;;;;;8.10;95934.00;;;;5073172;28;20191;-63
2022/12/25 08:41:03;;;;;;;0.97;0.97;;;;;8.20;95933.00;;;;5072581;28;20669;-63
2022/12/25 08:43:32;;;;;;;1.13;1.13;;;;;7.90;95937.00;;;;5073064;28;20195;-63
2022/12/25 08:45:59;;;;;;;0.50;0.50;;;;;8.00;95936.00;;;;5072808;28;20195;-63
2022/12/25 08:48:27;;;;;;;0.80;0.80;;;;;8.10;95931.00;;;;5054749;28;20666;-63
2022/12/25 08:50:55;;;;;;;0.60;0.60;;;;;8.20;95916.00;;;;5073108;28;20215;-62
2022/12/25 08:53:23;;;;;;;0.87;0.87;;;;;8.40;95894.00;;;;5072761;28;20192;-63
2022/12/25 08:55:56;;;;;;;0.73;0.73;;;;;8.50;95886.00;;;;5072908;28;20564;-63
2022/12/25 08:58:23;;;;;;;0.70;0.70;;;;;8.50;95879.00;;;;5073022;28;20645;-63
2022/12/25 09:00:52;;;;;;;0.73;0.73;;;;;8.60;95879.00;;;;5072780;28;20223;-62
2022/12/25 09:03:20;;;;;;;1.00;1.00;;;;;8.70;95886.00;;;;5072592;28;20203;-62
2022/12/25 09:05:47;;;;;;;0.70;0.70;;;;;8.70;95898.00;;;;5072525;28;20716;-62
2022/12/25 09:08:14;;;;;;;1.43;1.33;;;;;8.90;95903.00;;;;5072528;28;20249;-63
2022/12/25 09:10:42;;;;;;;0.70;0.70;;;;;8.80;95906.00;;;;5072455;28;20744;-62
2022/12/25 09:13:09;;;;;;;0.97;0.97;;;;;8.80;95905.00;;;;5072567;28;20245;-63
2022/12/25 09:15:39;;;;;;;0.87;0.87;;;;;8.80;95904.00;;;;5072842;28;20218;-65
2022/12/25 09:18:08;;;;;;;0.80;0.80;;;;;8.80;95901.00;;;;5074819;28;20195;-62
2022/12/25 09:20:35;;;;;;;0.80;0.80;;;;;8.60;95914.00;;;;5076023;28;20194;-62
2022/12/25 09:23:03;;;;;;;0.87;0.87;;;;;8.70;95909.00;;;;5076032;28;20296;-62
2022/12/25 09:25:30;;;;;;;0.80;0.80;;;;;8.60;95906.00;;;;5076023;28;20206;-63
2022/12/25 09:27:57;;;;;;;0.83;0.83;;;;;8.50;95902.00;;;;5075970;28;20195;-63
2022/12/25 09:30:25;;;;;;;1.00;1.00;;;;;8.50;95916.00;;;;5075852;28;20196;-65
2022/12/25 09:32:52;;;;;;;1.43;1.33;;;;;8.50;95916.00;;;;5076226;28;20606;-63
2022/12/25 09:35:21;;;;;;;0.70;0.70;;;;;8.40;95915.00;;;;5076431;28;20277;-64
2022/12/25 09:37:48;;;;;;;1.47;1.37;;;;;8.50;95911.00;;;;5075822;28;20274;-63
2022/12/25 09:40:19;;;;;;;0.83;0.83;;;;;8.50;95906.00;;;;5075897;28;20191;-64
2022/12/25 09:42:48;;;;;;;1.53;1.43;;;;;8.70;95914.00;;;;5075526;28;20216;-64
2022/12/25 09:45:24;;;;;;;0.80;0.80;;;;;8.60;95916.00;;;;5076004;28;20192;-63
2022/12/25 09:47:55;;;;;;;0.50;0.50;;;;;8.90;95907.00;;;;5076245;28;20179;-63
2022/12/25 09:50:31;;;;;;;0.93;0.87;;;;;9.00;95911.00;;;;5075828;28;20233;-63
2022/12/25 09:53:05;;;;;;;0.70;0.70;;;;;9.10;95913.00;;;;5076225;28;20182;-63
2022/12/25 09:55:38;;;;;;;1.23;1.23;;;;;9.50;95912.00;;;;5075635;28;20191;-62
2022/12/25 09:58:12;;;;;;;1.40;1.40;;;;;9.30;95895.00;;;;5075475;28;20627;-62
2022/12/25 10:00:42;;;;;;;0.80;0.80;;;;;9.30;95897.00;;;;5075563;28;20726;-64
2022/12/25 10:03:19;;;;;;;1.13;1.13;;;;;9.50;95884.00;;;;5075439;28;20199;-63
2022/12/25 10:06:11;;;;;;;1.40;1.30;;;;;9.40;95886.00;;;;5075654;28;20207;-63
2022/12/25 10:08:59;;;;;;;1.13;1.03;;;;;9.50;95895.00;;;;5057402;28;20218;-63
2022/12/25 10:11:40;;;;;;;1.67;1.17;;;;;9.60;95883.00;;;;5075308;28;20211;-63
2022/12/25 10:14:18;;;;;;;0.93;0.93;;;;;9.60;95887.00;;;;5075518;28;20553;-64
2022/12/25 10:16:57;;;;;;;1.27;1.27;;;;;9.60;95890.00;;;;5057233;28;20290;-63
2022/12/25 10:19:40;;;;;;;0.73;0.73;;;;;9.70;95873.00;;;;5075675;28;20183;-64
2022/12/25 10:22:15;;;;;;;1.40;1.30;;;;;9.60;95871.00;;;;5075014;28;20222;-59
2022/12/25 10:24:47;;;;;;;1.17;1.13;;;;;9.90;95861.00;;;;5075323;28;20622;-61
2022/12/25 10:27:19;;;;;;;1.43;1.40;;;;;10.10;95859.00;;;;5075548;28;20195;-61
2022/12/25 10:29:52;;;;;;;1.03;1.03;;;;;10.20;95856.00;;;;5075318;28;20233;-65
2022/12/25 10:32:20;;;;;;;0.70;0.70;;;;;10.40;95850.00;;;;5074917;28;20298;-64
2022/12/25 10:34:48;;;;;;;0.87;0.87;;;;;10.60;95848.00;;;;5074821;28;20203;-63
2022/12/25 10:37:17;;;;;;;0.90;0.90;;;;;10.60;95853.00;;;;5075256;28;20196;-66
2022/12/25 10:39:45;;;;;;;0.90;0.90;;;;;10.50;95847.00;;;;5074553;28;20203;-68
2022/12/25 10:42:30;;;;;;;0.70;0.70;;;;;10.50;95846.00;;;;5056454;28;20223;-64
2022/12/25 10:45:00;;;;;;;0.77;0.77;;;;;10.50;95847.00;;;;5056762;28;20194;-63
2022/12/25 10:47:30;;;;;;;0.90;0.90;;;;;10.50;95842.00;;;;5074583;28;20196;-63
2022/12/25 10:49:58;;;;;;;1.10;1.10;;;;;10.50;95838.00;;;;5075087;28;20661;-63
2022/12/25 10:52:28;;;;;;;0.73;0.73;;;;;10.80;95826.00;;;;5074414;28;20230;-63
2022/12/25 10:54:56;;;;;;;1.67;1.63;;;;;10.50;95840.00;;;;5056508;28;20635;-62
2022/12/25 10:57:26;;;;;;;1.43;1.40;;;;;10.30;95824.00;;;;5074355;28;20658;-63
2022/12/25 10:59:56;;;;;;;1.10;1.00;;;;;10.40;95822.00;;;;5074521;28;20199;-61
2022/12/25 11:05:50;;;;;;;0.93;0.93;;;;;10.80;95813.00;;;;5060356;28;20207;-62
2022/12/25 11:08:22;;;;;;;0.80;0.80;;;;;11.40;95813.00;;;;5074176;28;20202;-61
2022/12/25 11:10:55;;;;;;;1.13;1.13;;;;;11.50;95824.00;;;;5074454;28;20217;-61
2022/12/25 11:13:24;;;;;;;2.13;1.50;;;;;11.50;95817.00;;;;5074056;28;20230;-61
2022/12/25 11:16:02;;;;;;;1.37;1.27;;;;;12.10;95813.00;;;;5056834;28;20664;-61
2022/12/25 11:18:33;;;;;;;1.03;1.03;;;;;12.50;95805.00;;;;5073944;28;20191;-62
2022/12/25 11:21:02;;;;;;;1.90;1.80;;;;;12.90;95806.00;;;;5074075;28;20211;-62
2022/12/25 11:23:33;;;;;;;1.80;1.23;;;;;12.50;95794.00;;;;5074011;28;20554;-63
2022/12/25 11:26:03;;;;;;;1.73;1.63;;;;;12.70;95767.00;;;;5074065;28;20278;-63
2022/12/25 11:28:33;;;;;;;1.40;1.30;;;;;13.40;95772.00;;;;5073624;28;20196;-63
2022/12/25 11:31:05;;;;;;;1.53;1.43;;;;;14.00;95747.00;;;;5073585;28;20219;-62
2022/12/25 11:33:35;;;;;;;1.90;1.80;;;;;15.40;95760.00;;;;5074145;28;20180;-63
2022/12/25 11:36:09;;;;;;;2.03;1.80;;;;;16.10;95717.00;;;;5073798;28;20549;-63
2022/12/25 11:38:38;;;;;;;1.27;1.20;;;;;17.10;95721.00;;;;5073887;28;20680;-62
2022/12/25 11:41:09;;;;;;;2.43;0.83;;;;;19.30;95715.00;;;;5072928;28;20227;-62
2022/12/25 11:43:40;;;;;;;0.60;0.60;;;;;21.90;95721.00;;;;5073917;28;20294;-62
2022/12/25 11:46:14;;;;;;;1.50;0.77;;;;;22.90;95722.00;;;;5073792;28;20180;-63
2022/12/25 11:48:45;;;;;;;0.50;0.50;;;;;22.20;95716.00;;;;5074032;28;20188;-62
2022/12/25 11:51:16;;;;;;;1.08;0.80;;;;;21.60;95735.00;;;;5073744;28;20217;-63
2022/12/25 11:53:48;;;;;;;2.47;1.33;;;;;23.60;95700.00;;;;5073375;28;20164;-62
2022/12/25 11:56:18;;;;;;;1.15;1.05;;;;;21.40;95690.00;;;;5073660;28;20665;-62
2022/12/25 11:58:49;;;;;;;0.77;0.77;;;;;22.20;95711.00;;;;5073885;28;20195;-62
2022/12/25 12:01:21;;;;;;;0.60;0.60;;;;;23.40;95733.00;;;;5073246;28;20265;-63
2022/12/25 12:03:48;;;;;;;0.60;0.60;;;;;22.40;95714.00;;;;5073340;28;20203;-63
2022/12/25 12:06:23;;;;;;;0.65;0.65;;;;;22.60;95711.00;;;;5073236;28;20202;-62
2022/12/25 12:08:56;;;;;;;0.88;0.88;;;;;25.30;95685.00;;;;5073244;28;20183;-63
2022/12/25 12:11:32;;;;;;;0.93;0.85;;;;;26.50;95706.00;;;;5073171;28;20261;-63
2022/12/25 12:14:14;;;;;;;1.20;1.02;;;;;27.80;95672.00;;;;5073837;28;20172;-63
2022/12/25 12:16:42;;;;;;;0.60;0.60;;;;;29.30;95731.00;;;;5073375;28;20212;-62
2022/12/25 12:19:23;;;;;;;1.40;0.65;;;;;26.70;95688.00;;;;5073135;28;20199;-63
2022/12/25 12:21:51;;;;;;;0.55;0.55;;;;;27.80;95666.00;;;;5055050;28;20223;-62
2022/12/25 12:24:22;;;;;;;0.57;0.57;;;;;27.70;95684.00;;;;5073377;28;20203;-63
2022/12/25 12:27:02;;;;;;;0.85;0.70;;;;;26.60;95662.00;;;;5073366;28;20262;-63
2022/12/25 12:29:34;;;;;;;0.63;0.63;;;;;29.60;95680.00;;;;5055433;28;20195;-63
2022/12/25 12:32:04;;;;;;;0.82;0.82;;;;;31.10;95686.00;;;;5073187;28;20227;-63
2022/12/25 12:34:37;;;;;;;0.60;0.60;;;;;30.80;95694.00;;;;5073029;28;20196;-63
2022/12/25 12:37:11;;;;;;;0.70;0.70;;;;;31.50;95690.00;;;;5073232;28;20174;-64
2022/12/25 12:39:41;;;;;;;0.50;0.50;;;;;31.70;95692.00;;;;5073267;28;20191;-64
2022/12/25 12:42:15;;;;;;;0.70;0.70;;;;;31.40;95697.00;;;;5073197;28;20665;-64
2022/12/25 12:44:44;;;;;;;0.80;0.80;;;;;33.20;95690.00;;;;5072846;28;20180;-64
2022/12/25 12:47:28;;;;;;;0.40;0.40;;;;;33.10;95691.00;;;;5072907;28;20195;-63
2022/12/25 12:49:58;;;;;;;0.82;0.82;;;;;32.30;95697.00;;;;5072894;28;20620;-63
2022/12/25 12:52:32;;;;;;;0.52;0.52;;;;;31.20;95686.00;;;;5074084;28;20686;-63
2022/12/25 12:55:03;;;;;;;0.70;0.70;;;;;33.40;95692.00;;;;5076993;28;20237;-63
2022/12/25 12:57:38;;;;;;;0.70;0.70;;;;;33.60;95689.00;;;;5077002;28;20236;-63
2022/12/25 13:00:08;;;;;;;0.60;0.60;;;;;31.00;95699.00;;;;5076963;28;20174;-63
2022/12/25 13:03:04;;;;;;;0.70;0.70;;;;;32.00;95686.00;;;;5058472;28;20250;-63
2022/12/25 13:05:39;;;;;;;0.60;0.60;;;;;30.90;95688.00;;;;5076620;28;20187;-63
2022/12/25 13:08:23;;;;;;;0.63;0.63;;;;;30.80;95688.00;;;;5076758;28;20182;-63
2022/12/25 13:11:03;;;;;;;0.50;0.50;;;;;29.10;95702.00;;;;5076657;28;20215;-62
2022/12/25 13:13:36;;;;;;;0.68;0.68;;;;;28.00;95689.00;;;;5076600;28;20175;-63
2022/12/25 13:16:05;;;;;;;0.50;0.50;;;;;29.10;95696.00;;;;5076625;28;20256;-62
2022/12/25 13:18:34;;;;;;;0.50;0.50;;;;;30.10;95698.00;;;;5076248;28;20227;-63
2022/12/25 13:21:04;;;;;;;0.50;0.50;;;;;29.70;95717.00;;;;5058245;28;20582;-64
2022/12/25 13:23:33;;;;;;;0.70;0.70;;;;;29.30;95709.00;;;;5076229;28;20207;-63
2022/12/25 13:26:04;;;;;;;0.60;0.60;;;;;29.20;95704.00;;;;5076525;28;20279;-63
2022/12/25 13:28:34;;;;;;;0.50;0.50;;;;;30.30;95706.00;;;;5076421;28;20192;-63
2022/12/25 13:31:07;;;;;;;0.70;0.70;;;;;29.80;95754.00;;;;5076820;28;20212;-63
2022/12/25 13:33:35;;;;;;;0.60;0.60;;;;;28.10;95725.00;;;;5076220;28;20623;-63
2022/12/25 13:36:03;;;;;;;0.55;0.55;;;;;29.10;95694.00;;;;5075991;28;20199;-63
2022/12/25 13:38:31;;;;;;;0.50;0.50;;;;;30.40;95748.00;;;;5075918;28;20530;-64
2022/12/25 13:43:47;;;;;;;0.40;0.40;;;;;24.70;95748.00;;;;5035412;28;20758;-55
2022/12/25 13:46:15;;;;;;;0.50;0.50;;;;;24.30;95741.00;;;;5036301;28;20188;-55
2022/12/25 13:48:43;;;;;;;0.63;0.63;;;;;25.00;95722.00;;;;5035917;28;20251;-55
2022/12/25 13:51:16;;;;;;;0.30;0.30;;;;;23.70;95760.00;;;;5035822;28;20287;-56
2022/12/25 13:53:43;;;;;;;0.60;0.60;;;;;23.10;95756.00;;;;5035673;28;20173;-56
2022/12/25 13:56:15;;;;;;;0.50;0.50;;;;;21.20;95752.00;;;;5035622;28;20193;-56
2022/12/25 13:58:46;;;;;;;0.60;0.60;;;;;19.70;95737.00;;;;5035907;28;20262;-56
2022/12/25 14:01:17;;;;;;;1.20;0.60;;;;;18.90;95741.00;;;;5035651;28;20217;-56
2022/12/25 14:03:46;;;;;;;0.30;0.30;;;;;18.30;95749.00;;;;5035325;28;20201;-56
2022/12/25 14:06:20;;;;;;;0.73;0.70;;;;;17.90;95765.00;;;;5035542;28;20196;-56
2022/12/25 14:08:48;;;;;;;1.37;0.60;;;;;17.30;95756.00;;;;5036012;28;20187;-56
2022/12/25 14:11:19;;;;;;;0.30;0.30;;;;;17.30;95757.00;;;;5035330;28;20219;-55
2022/12/25 14:13:51;;;;;;;0.40;0.40;;;;;16.90;95756.00;;;;5035673;28;20178;-56
2022/12/25 14:16:19;;;;;;;0.50;0.50;;;;;16.30;95768.00;;;;5035316;28;20192;-55
2022/12/25 14:18:52;;;;;;;0.57;0.57;;;;;15.70;95766.00;;;;5035230;28;20251;-55
2022/12/25 14:21:26;;;;;;;0.70;0.70;;;;;15.20;95750.00;;;;5035374;28;20239;-56
2022/12/25 14:23:54;;;;;;;0.50;0.50;;;;;15.00;95746.00;;;;5035385;28;20207;-56
2022/12/25 14:26:24;;;;;;;0.53;0.53;;;;;14.70;95748.00;;;;5035084;28;20197;-56